sensor_id;sensor_type;location;lat;lon;timestamp;P1;durP1;ratioP1;P2;durP2;ratioP2
54647;SDS011;40543;53.584;9.858;2023-06-22T00:00:59;55.03;;;50.75;;
54647;SDS011;40543;53.584;9.858;2023-06-22T00:03:25;56.75;;;52.25;;
54647;SDS011;40543;53.584;9.858;2023-06-22T00:05:51;55.97;;;51.47;;
54647;SDS011;40543;53.584;9.858;2023-06-22T00:08:17;60.17;;;55.33;;
54647;SDS011;40543;53.584;9.858;2023-06-22T00:10:44;59.00;;;54.08;;
54647;SDS011;40543;53.584;9.858;2023-06-22T00:13:10;58.30;;;53.55;;
54647;SDS011;40543;53.584;9.858;2023-06-22T00:15:37;57.05;;;52.50;;
54647;SDS011;40543;53.584;9.858;2023-06-22T00:18:03;46.88;;;43.53;;
54647;SDS011;40543;53.584;9.858;2023-06-22T00:20:30;47.28;;;43.95;;
54647;SDS011;40543;53.584;9.858;2023-06-22T00:22:56;43.20;;;40.13;;
54647;SDS011;40543;53.584;9.858;2023-06-22T00:25:22;45.13;;;41.92;;
54647;SDS011;40543;53.584;9.858;2023-06-22T00:27:48;42.85;;;39.97;;
54647;SDS011;40543;53.584;9.858;2023-06-22T00:30:15;41.70;;;38.85;;
54647;SDS011;40543;53.584;9.858;2023-06-22T00:32:41;39.95;;;37.28;;
54647;SDS011;40543;53.584;9.858;2023-06-22T00:35:07;47.72;;;44.13;;
54647;SDS011;40543;53.584;9.858;2023-06-22T00:37:32;44.05;;;40.80;;
54647;SDS011;40543;53.584;9.858;2023-06-22T00:39:58;23.83;;;22.23;;
54647;SDS011;40543;53.584;9.858;2023-06-22T00:42:24;26.63;;;24.95;;
54647;SDS011;40543;53.584;9.858;2023-06-22T00:44:49;25.70;;;24.10;;
54647;SDS011;40543;53.584;9.858;2023-06-22T00:47:15;32.50;;;30.45;;
54647;SDS011;40543;53.584;9.858;2023-06-22T00:49:42;24.33;;;22.67;;
54647;SDS011;40543;53.584;9.858;2023-06-22T00:52:08;24.38;;;22.80;;
54647;SDS011;40543;53.584;9.858;2023-06-22T00:54:38;30.73;;;28.58;;
54647;SDS011;40543;53.584;9.858;2023-06-22T00:57:05;28.67;;;26.88;;
54647;SDS011;40543;53.584;9.858;2023-06-22T00:59:30;30.77;;;28.83;;
54647;SDS011;40543;53.584;9.858;2023-06-22T01:01:57;20.98;;;19.67;;
54647;SDS011;40543;53.584;9.858;2023-06-22T01:04:24;23.58;;;22.27;;
54647;SDS011;40543;53.584;9.858;2023-06-22T01:07:06;22.98;;;21.35;;
54647;SDS011;40543;53.584;9.858;2023-06-22T01:12:58;20.70;;;19.38;;
54647;SDS011;40543;53.584;9.858;2023-06-22T01:15:49;24.70;;;23.20;;
54647;SDS011;40543;53.584;9.858;2023-06-22T01:18:21;24.80;;;23.38;;
54647;SDS011;40543;53.584;9.858;2023-06-22T01:20:50;17.05;;;15.95;;
54647;SDS011;40543;53.584;9.858;2023-06-22T01:31:23;16.75;;;15.75;;
54647;SDS011;40543;53.584;9.858;2023-06-22T01:33:52;22.42;;;21.10;;
54647;SDS011;40543;53.584;9.858;2023-06-22T01:36:21;24.00;;;22.48;;
54647;SDS011;40543;53.584;9.858;2023-06-22T01:38:48;22.08;;;20.67;;
54647;SDS011;40543;53.584;9.858;2023-06-22T01:41:14;20.05;;;18.75;;
54647;SDS011;40543;53.584;9.858;2023-06-22T01:43:41;22.77;;;21.38;;
54647;SDS011;40543;53.584;9.858;2023-06-22T01:46:07;27.35;;;25.48;;
54647;SDS011;40543;53.584;9.858;2023-06-22T01:48:33;24.73;;;23.20;;
54647;SDS011;40543;53.584;9.858;2023-06-22T01:50:59;26.67;;;25.08;;
54647;SDS011;40543;53.584;9.858;2023-06-22T01:53:24;29.40;;;27.65;;
54647;SDS011;40543;53.584;9.858;2023-06-22T01:55:50;28.83;;;26.90;;
54647;SDS011;40543;53.584;9.858;2023-06-22T01:58:15;27.90;;;26.23;;
54647;SDS011;40543;53.584;9.858;2023-06-22T02:00:44;24.33;;;22.75;;
54647;SDS011;40543;53.584;9.858;2023-06-22T02:03:14;28.45;;;26.67;;
54647;SDS011;40543;53.584;9.858;2023-06-22T02:05:47;30.75;;;28.83;;
54647;SDS011;40543;53.584;9.858;2023-06-22T02:08:22;30.05;;;28.10;;
54647;SDS011;40543;53.584;9.858;2023-06-22T02:10:54;32.70;;;30.45;;
54647;SDS011;40543;53.584;9.858;2023-06-22T02:13:23;32.78;;;30.73;;
54647;SDS011;40543;53.584;9.858;2023-06-22T02:15:49;35.75;;;33.40;;
54647;SDS011;40543;53.584;9.858;2023-06-22T02:18:15;36.22;;;33.72;;
54647;SDS011;40543;53.584;9.858;2023-06-22T02:20:41;35.35;;;33.05;;
54647;SDS011;40543;53.584;9.858;2023-06-22T02:23:06;39.28;;;36.53;;
54647;SDS011;40543;53.584;9.858;2023-06-22T02:25:33;36.13;;;33.78;;
54647;SDS011;40543;53.584;9.858;2023-06-22T02:27:58;40.55;;;37.67;;
54647;SDS011;40543;53.584;9.858;2023-06-22T02:30:24;32.60;;;30.40;;
54647;SDS011;40543;53.584;9.858;2023-06-22T02:32:49;24.88;;;23.23;;
54647;SDS011;40543;53.584;9.858;2023-06-22T02:35:23;20.05;;;18.83;;
54647;SDS011;40543;53.584;9.858;2023-06-22T02:37:49;27.63;;;25.95;;
54647;SDS011;40543;53.584;9.858;2023-06-22T02:40:16;23.33;;;21.75;;
54647;SDS011;40543;53.584;9.858;2023-06-22T02:42:42;32.05;;;29.98;;
54647;SDS011;40543;53.584;9.858;2023-06-22T02:45:07;35.10;;;32.75;;
54647;SDS011;40543;53.584;9.858;2023-06-22T02:47:33;32.00;;;30.02;;
54647;SDS011;40543;53.584;9.858;2023-06-22T02:49:58;30.77;;;28.95;;
54647;SDS011;40543;53.584;9.858;2023-06-22T02:52:24;32.00;;;29.83;;
54647;SDS011;40543;53.584;9.858;2023-06-22T02:54:49;31.98;;;29.92;;
54647;SDS011;40543;53.584;9.858;2023-06-22T02:57:15;31.48;;;29.40;;
54647;SDS011;40543;53.584;9.858;2023-06-22T02:59:40;31.42;;;29.08;;
54647;SDS011;40543;53.584;9.858;2023-06-22T03:02:07;27.77;;;25.98;;
54647;SDS011;40543;53.584;9.858;2023-06-22T03:04:34;23.42;;;22.00;;
54647;SDS011;40543;53.584;9.858;2023-06-22T03:06:59;18.23;;;17.00;;
54647;SDS011;40543;53.584;9.858;2023-06-22T03:09:26;10.65;;;10.00;;
54647;SDS011;40543;53.584;9.858;2023-06-22T03:11:52;12.50;;;11.65;;
54647;SDS011;40543;53.584;9.858;2023-06-22T03:14:18;14.13;;;12.93;;
54647;SDS011;40543;53.584;9.858;2023-06-22T03:16:43;12.25;;;11.48;;
54647;SDS011;40543;53.584;9.858;2023-06-22T03:19:09;13.13;;;12.20;;
54647;SDS011;40543;53.584;9.858;2023-06-22T03:21:34;16.58;;;15.45;;
54647;SDS011;40543;53.584;9.858;2023-06-22T03:24:02;12.77;;;11.68;;
54647;SDS011;40543;53.584;9.858;2023-06-22T03:26:27;7.25;;;6.70;;
54647;SDS011;40543;53.584;9.858;2023-06-22T03:28:53;7.85;;;7.22;;
54647;SDS011;40543;53.584;9.858;2023-06-22T03:31:18;12.15;;;11.32;;
54647;SDS011;40543;53.584;9.858;2023-06-22T03:33:46;13.40;;;12.55;;
54647;SDS011;40543;53.584;9.858;2023-06-22T03:36:13;12.02;;;11.02;;
54647;SDS011;40543;53.584;9.858;2023-06-22T03:38:38;18.70;;;17.33;;
54647;SDS011;40543;53.584;9.858;2023-06-22T03:41:04;19.25;;;18.08;;
54647;SDS011;40543;53.584;9.858;2023-06-22T03:43:29;14.05;;;12.57;;
54647;SDS011;40543;53.584;9.858;2023-06-22T03:45:54;15.50;;;14.52;;
54647;SDS011;40543;53.584;9.858;2023-06-22T03:48:20;17.70;;;16.45;;
54647;SDS011;40543;53.584;9.858;2023-06-22T03:50:45;20.02;;;18.77;;
54647;SDS011;40543;53.584;9.858;2023-06-22T03:53:10;23.20;;;21.75;;
54647;SDS011;40543;53.584;9.858;2023-06-22T03:55:36;21.17;;;19.80;;
54647;SDS011;40543;53.584;9.858;2023-06-22T03:58:01;19.75;;;18.42;;
54647;SDS011;40543;53.584;9.858;2023-06-22T04:00:30;19.52;;;17.98;;
54647;SDS011;40543;53.584;9.858;2023-06-22T04:02:57;17.48;;;16.40;;
54647;SDS011;40543;53.584;9.858;2023-06-22T04:05:22;18.75;;;17.63;;
54647;SDS011;40543;53.584;9.858;2023-06-22T04:07:48;20.02;;;18.75;;
54647;SDS011;40543;53.584;9.858;2023-06-22T04:10:13;17.95;;;16.77;;
54647;SDS011;40543;53.584;9.858;2023-06-22T04:12:38;15.02;;;13.73;;
54647;SDS011;40543;53.584;9.858;2023-06-22T04:15:04;16.77;;;15.55;;
54647;SDS011;40543;53.584;9.858;2023-06-22T04:17:30;15.07;;;14.07;;
54647;SDS011;40543;53.584;9.858;2023-06-22T04:19:55;17.33;;;16.33;;
54647;SDS011;40543;53.584;9.858;2023-06-22T04:22:20;19.33;;;18.17;;
54647;SDS011;40543;53.584;9.858;2023-06-22T04:24:45;10.65;;;10.00;;
54647;SDS011;40543;53.584;9.858;2023-06-22T04:27:11;14.38;;;13.20;;
54647;SDS011;40543;53.584;9.858;2023-06-22T04:29:36;11.40;;;10.60;;
54647;SDS011;40543;53.584;9.858;2023-06-22T04:32:03;11.10;;;10.05;;
54647;SDS011;40543;53.584;9.858;2023-06-22T04:34:31;23.17;;;21.63;;
54647;SDS011;40543;53.584;9.858;2023-06-22T04:36:56;16.17;;;15.13;;
54647;SDS011;40543;53.584;9.858;2023-06-22T04:39:22;16.52;;;15.15;;
54647;SDS011;40543;53.584;9.858;2023-06-22T04:41:48;24.90;;;23.20;;
54647;SDS011;40543;53.584;9.858;2023-06-22T04:44:16;21.27;;;19.63;;
54647;SDS011;40543;53.584;9.858;2023-06-22T04:46:52;21.02;;;19.77;;
54647;SDS011;40543;53.584;9.858;2023-06-22T04:49:33;15.02;;;14.05;;
54647;SDS011;40543;53.584;9.858;2023-06-22T04:52:03;12.50;;;11.63;;
54647;SDS011;40543;53.584;9.858;2023-06-22T04:54:29;17.60;;;16.35;;
54647;SDS011;40543;53.584;9.858;2023-06-22T04:56:59;20.23;;;18.95;;
54647;SDS011;40543;53.584;9.858;2023-06-22T04:59:27;13.68;;;12.82;;
54647;SDS011;40543;53.584;9.858;2023-06-22T05:01:55;14.63;;;13.48;;
54647;SDS011;40543;53.584;9.858;2023-06-22T05:04:24;13.10;;;12.25;;
54647;SDS011;40543;53.584;9.858;2023-06-22T05:06:51;7.40;;;6.70;;
54647;SDS011;40543;53.584;9.858;2023-06-22T05:09:16;5.88;;;5.38;;
54647;SDS011;40543;53.584;9.858;2023-06-22T05:11:42;4.15;;;3.88;;
54647;SDS011;40543;53.584;9.858;2023-06-22T05:14:08;6.22;;;5.70;;
54647;SDS011;40543;53.584;9.858;2023-06-22T05:16:33;6.78;;;6.15;;
54647;SDS011;40543;53.584;9.858;2023-06-22T05:18:59;5.85;;;5.32;;
54647;SDS011;40543;53.584;9.858;2023-06-22T05:21:25;5.80;;;5.30;;
54647;SDS011;40543;53.584;9.858;2023-06-22T05:23:52;5.68;;;5.28;;
54647;SDS011;40543;53.584;9.858;2023-06-22T05:26:18;8.77;;;8.13;;
54647;SDS011;40543;53.584;9.858;2023-06-22T05:28:45;11.32;;;10.23;;
54647;SDS011;40543;53.584;9.858;2023-06-22T05:31:12;10.50;;;9.77;;
54647;SDS011;40543;53.584;9.858;2023-06-22T05:33:38;8.25;;;7.65;;
54647;SDS011;40543;53.584;9.858;2023-06-22T05:36:04;7.60;;;6.97;;
54647;SDS011;40543;53.584;9.858;2023-06-22T05:38:30;6.80;;;6.32;;
54647;SDS011;40543;53.584;9.858;2023-06-22T05:40:55;8.98;;;8.30;;
54647;SDS011;40543;53.584;9.858;2023-06-22T05:43:21;7.50;;;7.00;;
54647;SDS011;40543;53.584;9.858;2023-06-22T05:45:46;9.40;;;8.48;;
54647;SDS011;40543;53.584;9.858;2023-06-22T05:48:11;8.70;;;5.75;;
54647;SDS011;40543;53.584;9.858;2023-06-22T05:50:37;7.70;;;7.00;;
54647;SDS011;40543;53.584;9.858;2023-06-22T05:53:02;23.30;;;8.13;;
54647;SDS011;40543;53.584;9.858;2023-06-22T05:55:28;5.90;;;5.38;;
54647;SDS011;40543;53.584;9.858;2023-06-22T05:57:53;5.88;;;5.47;;
54647;SDS011;40543;53.584;9.858;2023-06-22T06:00:18;9.85;;;8.32;;
54647;SDS011;40543;53.584;9.858;2023-06-22T06:02:44;7.80;;;6.63;;
54647;SDS011;40543;53.584;9.858;2023-06-22T06:05:12;10.80;;;6.90;;
54647;SDS011;40543;53.584;9.858;2023-06-22T06:07:41;5.57;;;5.15;;
54647;SDS011;40543;53.584;9.858;2023-06-22T06:10:07;8.60;;;8.02;;
54647;SDS011;40543;53.584;9.858;2023-06-22T06:12:33;14.02;;;5.45;;
54647;SDS011;40543;53.584;9.858;2023-06-22T06:14:58;6.40;;;5.80;;
54647;SDS011;40543;53.584;9.858;2023-06-22T06:17:24;7.28;;;6.70;;
54647;SDS011;40543;53.584;9.858;2023-06-22T06:19:49;4.47;;;4.07;;
54647;SDS011;40543;53.584;9.858;2023-06-22T06:22:14;6.40;;;5.78;;
54647;SDS011;40543;53.584;9.858;2023-06-22T06:24:40;4.70;;;4.40;;
54647;SDS011;40543;53.584;9.858;2023-06-22T06:27:05;6.90;;;6.38;;
54647;SDS011;40543;53.584;9.858;2023-06-22T06:29:31;4.32;;;3.78;;
54647;SDS011;40543;53.584;9.858;2023-06-22T06:31:57;3.33;;;3.08;;
54647;SDS011;40543;53.584;9.858;2023-06-22T06:34:22;4.82;;;3.35;;
54647;SDS011;40543;53.584;9.858;2023-06-22T06:36:47;6.07;;;5.45;;
54647;SDS011;40543;53.584;9.858;2023-06-22T06:39:13;6.25;;;4.93;;
54647;SDS011;40543;53.584;9.858;2023-06-22T06:41:38;4.15;;;3.08;;
54647;SDS011;40543;53.584;9.858;2023-06-22T06:44:03;6.10;;;4.72;;
54647;SDS011;40543;53.584;9.858;2023-06-22T06:46:29;5.13;;;4.65;;
54647;SDS011;40543;53.584;9.858;2023-06-22T06:48:54;4.57;;;3.45;;
54647;SDS011;40543;53.584;9.858;2023-06-22T06:51:19;6.80;;;4.82;;
54647;SDS011;40543;53.584;9.858;2023-06-22T06:53:45;4.07;;;3.50;;
54647;SDS011;40543;53.584;9.858;2023-06-22T06:56:10;5.25;;;2.78;;
54647;SDS011;40543;53.584;9.858;2023-06-22T06:58:36;4.80;;;4.35;;
54647;SDS011;40543;53.584;9.858;2023-06-22T07:01:02;4.35;;;4.05;;
54647;SDS011;40543;53.584;9.858;2023-06-22T07:03:28;4.63;;;4.28;;
54647;SDS011;40543;53.584;9.858;2023-06-22T07:05:53;6.03;;;4.32;;
54647;SDS011;40543;53.584;9.858;2023-06-22T07:08:19;6.53;;;5.18;;
54647;SDS011;40543;53.584;9.858;2023-06-22T07:10:44;5.00;;;3.80;;
54647;SDS011;40543;53.584;9.858;2023-06-22T07:13:09;4.93;;;4.45;;
54647;SDS011;40543;53.584;9.858;2023-06-22T07:15:35;3.65;;;3.33;;
54647;SDS011;40543;53.584;9.858;2023-06-22T07:18:00;3.75;;;3.33;;
54647;SDS011;40543;53.584;9.858;2023-06-22T07:20:25;3.45;;;3.13;;
54647;SDS011;40543;53.584;9.858;2023-06-22T07:22:51;2.83;;;2.63;;
54647;SDS011;40543;53.584;9.858;2023-06-22T07:25:17;2.88;;;2.38;;
54647;SDS011;40543;53.584;9.858;2023-06-22T07:27:44;5.30;;;3.85;;
54647;SDS011;40543;53.584;9.858;2023-06-22T07:30:29;5.28;;;4.65;;
54647;SDS011;40543;53.584;9.858;2023-06-22T07:32:56;4.97;;;3.45;;
54647;SDS011;40543;53.584;9.858;2023-06-22T07:35:22;4.32;;;2.97;;
54647;SDS011;40543;53.584;9.858;2023-06-22T07:37:47;3.40;;;2.97;;
54647;SDS011;40543;53.584;9.858;2023-06-22T07:40:13;2.42;;;2.00;;
54647;SDS011;40543;53.584;9.858;2023-06-22T07:42:38;1.42;;;1.35;;
54647;SDS011;40543;53.584;9.858;2023-06-22T07:45:04;2.90;;;1.88;;
54647;SDS011;40543;53.584;9.858;2023-06-22T07:47:30;4.63;;;2.60;;
54647;SDS011;40543;53.584;9.858;2023-06-22T07:49:59;1.23;;;1.02;;
54647;SDS011;40543;53.584;9.858;2023-06-22T07:52:26;1.40;;;1.33;;
54647;SDS011;40543;53.584;9.858;2023-06-22T07:54:51;2.45;;;2.25;;
54647;SDS011;40543;53.584;9.858;2023-06-22T07:57:17;2.00;;;1.30;;
54647;SDS011;40543;53.584;9.858;2023-06-22T07:59:42;1.77;;;1.35;;
54647;SDS011;40543;53.584;9.858;2023-06-22T08:02:07;3.13;;;2.38;;
54647;SDS011;40543;53.584;9.858;2023-06-22T08:04:34;1.65;;;1.55;;
54647;SDS011;40543;53.584;9.858;2023-06-22T08:07:00;1.38;;;1.35;;
54647;SDS011;40543;53.584;9.858;2023-06-22T08:09:27;2.58;;;1.92;;
54647;SDS011;40543;53.584;9.858;2023-06-22T08:11:54;2.38;;;2.00;;
54647;SDS011;40543;53.584;9.858;2023-06-22T08:14:21;1.70;;;1.50;;
54647;SDS011;40543;53.584;9.858;2023-06-22T08:16:46;4.80;;;2.58;;
54647;SDS011;40543;53.584;9.858;2023-06-22T08:19:12;3.28;;;2.15;;
54647;SDS011;40543;53.584;9.858;2023-06-22T08:21:37;2.20;;;2.10;;
54647;SDS011;40543;53.584;9.858;2023-06-22T08:24:03;2.92;;;2.28;;
54647;SDS011;40543;53.584;9.858;2023-06-22T08:26:28;3.10;;;2.80;;
54647;SDS011;40543;53.584;9.858;2023-06-22T08:28:54;1.77;;;1.67;;
54647;SDS011;40543;53.584;9.858;2023-06-22T08:31:19;3.95;;;2.63;;
54647;SDS011;40543;53.584;9.858;2023-06-22T08:33:44;2.28;;;2.05;;
54647;SDS011;40543;53.584;9.858;2023-06-22T08:36:11;3.53;;;2.53;;
54647;SDS011;40543;53.584;9.858;2023-06-22T08:38:38;2.63;;;2.42;;
54647;SDS011;40543;53.584;9.858;2023-06-22T08:41:03;3.80;;;2.78;;
54647;SDS011;40543;53.584;9.858;2023-06-22T08:43:28;3.78;;;2.95;;
54647;SDS011;40543;53.584;9.858;2023-06-22T08:45:54;3.42;;;2.25;;
54647;SDS011;40543;53.584;9.858;2023-06-22T08:48:19;3.92;;;2.90;;
54647;SDS011;40543;53.584;9.858;2023-06-22T08:50:44;3.03;;;2.35;;
54647;SDS011;40543;53.584;9.858;2023-06-22T08:53:10;2.40;;;2.20;;
54647;SDS011;40543;53.584;9.858;2023-06-22T08:55:35;3.58;;;2.70;;
54647;SDS011;40543;53.584;9.858;2023-06-22T08:58:01;3.03;;;2.28;;
54647;SDS011;40543;53.584;9.858;2023-06-22T09:00:26;2.15;;;1.95;;
54647;SDS011;40543;53.584;9.858;2023-06-22T09:02:53;3.63;;;3.05;;
54647;SDS011;40543;53.584;9.858;2023-06-22T09:05:24;5.07;;;3.05;;
54647;SDS011;40543;53.584;9.858;2023-06-22T09:07:51;2.58;;;2.38;;
54647;SDS011;40543;53.584;9.858;2023-06-22T09:10:16;3.78;;;2.03;;
54647;SDS011;40543;53.584;9.858;2023-06-22T09:12:42;4.40;;;2.60;;
54647;SDS011;40543;53.584;9.858;2023-06-22T09:15:08;5.43;;;3.10;;
54647;SDS011;40543;53.584;9.858;2023-06-22T09:17:33;4.53;;;2.75;;
54647;SDS011;40543;53.584;9.858;2023-06-22T09:20:00;3.42;;;2.42;;
54647;SDS011;40543;53.584;9.858;2023-06-22T09:22:25;3.83;;;2.20;;
54647;SDS011;40543;53.584;9.858;2023-06-22T09:24:54;5.40;;;4.03;;
54647;SDS011;40543;53.584;9.858;2023-06-22T09:27:21;4.38;;;2.78;;
54647;SDS011;40543;53.584;9.858;2023-06-22T09:29:47;4.50;;;2.70;;
54647;SDS011;40543;53.584;9.858;2023-06-22T09:32:12;3.30;;;2.70;;
54647;SDS011;40543;53.584;9.858;2023-06-22T09:34:38;2.42;;;2.13;;
54647;SDS011;40543;53.584;9.858;2023-06-22T09:37:03;3.40;;;2.67;;
54647;SDS011;40543;53.584;9.858;2023-06-22T09:39:29;3.22;;;2.63;;
54647;SDS011;40543;53.584;9.858;2023-06-22T09:41:54;3.30;;;2.35;;
54647;SDS011;40543;53.584;9.858;2023-06-22T09:44:19;5.22;;;2.88;;
54647;SDS011;40543;53.584;9.858;2023-06-22T09:46:45;2.87;;;2.33;;
54647;SDS011;40543;53.584;9.858;2023-06-22T09:49:10;4.68;;;3.00;;
54647;SDS011;40543;53.584;9.858;2023-06-22T09:51:35;2.92;;;2.63;;
54647;SDS011;40543;53.584;9.858;2023-06-22T09:54:01;3.40;;;3.10;;
54647;SDS011;40543;53.584;9.858;2023-06-22T09:56:26;3.45;;;2.58;;
54647;SDS011;40543;53.584;9.858;2023-06-22T09:58:53;3.40;;;2.80;;
54647;SDS011;40543;53.584;9.858;2023-06-22T10:01:18;3.88;;;2.53;;
54647;SDS011;40543;53.584;9.858;2023-06-22T10:03:45;2.75;;;2.55;;
54647;SDS011;40543;53.584;9.858;2023-06-22T10:06:11;2.83;;;2.63;;
54647;SDS011;40543;53.584;9.858;2023-06-22T10:08:36;2.70;;;2.50;;
54647;SDS011;40543;53.584;9.858;2023-06-22T10:11:02;2.55;;;2.35;;
54647;SDS011;40543;53.584;9.858;2023-06-22T10:13:30;5.13;;;2.50;;
54647;SDS011;40543;53.584;9.858;2023-06-22T10:15:56;2.55;;;2.30;;
54647;SDS011;40543;53.584;9.858;2023-06-22T10:18:21;3.75;;;2.45;;
54647;SDS011;40543;53.584;9.858;2023-06-22T10:20:47;3.35;;;2.42;;
54647;SDS011;40543;53.584;9.858;2023-06-22T10:23:13;3.92;;;2.42;;
54647;SDS011;40543;53.584;9.858;2023-06-22T10:25:39;3.08;;;2.78;;
54647;SDS011;40543;53.584;9.858;2023-06-22T10:28:04;6.55;;;2.90;;
54647;SDS011;40543;53.584;9.858;2023-06-22T10:30:29;3.60;;;2.33;;
54647;SDS011;40543;53.584;9.858;2023-06-22T10:32:55;5.07;;;2.55;;
54647;SDS011;40543;53.584;9.858;2023-06-22T10:35:20;3.58;;;3.10;;
54647;SDS011;40543;53.584;9.858;2023-06-22T10:37:46;375.45;;;220.45;;
54647;SDS011;40543;53.584;9.858;2023-06-22T10:40:12;316.95;;;194.20;;
54647;SDS011;40543;53.584;9.858;2023-06-22T10:42:38;297.30;;;184.13;;
54647;SDS011;40543;53.584;9.858;2023-06-22T10:45:04;226.55;;;153.68;;
54647;SDS011;40543;53.584;9.858;2023-06-22T10:47:29;213.73;;;148.00;;
54647;SDS011;40543;53.584;9.858;2023-06-22T10:49:55;226.65;;;152.88;;
54647;SDS011;40543;53.584;9.858;2023-06-22T10:52:20;230.95;;;155.65;;
54647;SDS011;40543;53.584;9.858;2023-06-22T10:54:45;224.50;;;152.18;;
54647;SDS011;40543;53.584;9.858;2023-06-22T10:57:11;214.90;;;147.70;;
54647;SDS011;40543;53.584;9.858;2023-06-22T10:59:36;208.43;;;144.38;;
54647;SDS011;40543;53.584;9.858;2023-06-22T11:02:01;208.70;;;144.20;;
54647;SDS011;40543;53.584;9.858;2023-06-22T11:04:27;207.35;;;145.23;;
54647;SDS011;40543;53.584;9.858;2023-06-22T11:06:52;215.43;;;145.00;;
54647;SDS011;40543;53.584;9.858;2023-06-22T11:09:18;212.02;;;146.75;;
54647;SDS011;40543;53.584;9.858;2023-06-22T11:11:46;212.93;;;147.45;;
54647;SDS011;40543;53.584;9.858;2023-06-22T11:14:12;219.60;;;149.68;;
54647;SDS011;40543;53.584;9.858;2023-06-22T11:16:37;213.27;;;147.30;;
54647;SDS011;40543;53.584;9.858;2023-06-22T11:19:04;214.05;;;147.73;;
54647;SDS011;40543;53.584;9.858;2023-06-22T11:21:30;218.80;;;150.13;;
54647;SDS011;40543;53.584;9.858;2023-06-22T11:23:56;209.88;;;146.27;;
54647;SDS011;40543;53.584;9.858;2023-06-22T11:26:21;221.48;;;151.23;;
54647;SDS011;40543;53.584;9.858;2023-06-22T11:28:47;254.75;;;165.82;;
54647;SDS011;40543;53.584;9.858;2023-06-22T11:31:12;251.13;;;165.20;;
54647;SDS011;40543;53.584;9.858;2023-06-22T11:33:38;253.75;;;166.00;;
54647;SDS011;40543;53.584;9.858;2023-06-22T11:36:03;254.82;;;167.05;;
54647;SDS011;40543;53.584;9.858;2023-06-22T11:38:28;264.58;;;171.52;;
54647;SDS011;40543;53.584;9.858;2023-06-22T11:40:55;273.27;;;174.32;;
54647;SDS011;40543;53.584;9.858;2023-06-22T11:43:21;271.85;;;173.77;;
54647;SDS011;40543;53.584;9.858;2023-06-22T11:45:46;269.25;;;173.77;;
54647;SDS011;40543;53.584;9.858;2023-06-22T11:48:11;271.83;;;174.98;;
54647;SDS011;40543;53.584;9.858;2023-06-22T11:50:37;281.85;;;179.23;;
54647;SDS011;40543;53.584;9.858;2023-06-22T11:53:02;269.05;;;173.65;;
54647;SDS011;40543;53.584;9.858;2023-06-22T11:55:28;267.95;;;173.50;;
54647;SDS011;40543;53.584;9.858;2023-06-22T11:57:54;292.67;;;184.35;;
54647;SDS011;40543;53.584;9.858;2023-06-22T12:00:21;278.52;;;176.40;;
54647;SDS011;40543;53.584;9.858;2023-06-22T12:02:49;270.95;;;174.90;;
54647;SDS011;40543;53.584;9.858;2023-06-22T12:05:16;297.20;;;187.15;;
54647;SDS011;40543;53.584;9.858;2023-06-22T12:07:41;293.13;;;184.73;;
54647;SDS011;40543;53.584;9.858;2023-06-22T12:10:07;299.20;;;188.05;;
54647;SDS011;40543;53.584;9.858;2023-06-22T12:12:32;318.65;;;195.88;;
54647;SDS011;40543;53.584;9.858;2023-06-22T12:14:58;287.58;;;182.48;;
54647;SDS011;40543;53.584;9.858;2023-06-22T12:17:28;283.52;;;179.38;;
54647;SDS011;40543;53.584;9.858;2023-06-22T12:19:53;291.52;;;182.68;;
54647;SDS011;40543;53.584;9.858;2023-06-22T12:22:18;302.90;;;187.95;;
54647;SDS011;40543;53.584;9.858;2023-06-22T12:24:44;300.40;;;187.93;;
54647;SDS011;40543;53.584;9.858;2023-06-22T12:27:09;314.33;;;193.88;;
54647;SDS011;40543;53.584;9.858;2023-06-22T12:29:35;313.48;;;193.35;;
54647;SDS011;40543;53.584;9.858;2023-06-22T12:32:00;304.23;;;189.45;;
54647;SDS011;40543;53.584;9.858;2023-06-22T12:34:25;294.25;;;184.70;;
54647;SDS011;40543;53.584;9.858;2023-06-22T12:36:51;288.40;;;181.98;;
54647;SDS011;40543;53.584;9.858;2023-06-22T12:39:19;291.50;;;183.20;;
54647;SDS011;40543;53.584;9.858;2023-06-22T12:41:44;323.27;;;197.38;;
54647;SDS011;40543;53.584;9.858;2023-06-22T12:44:09;300.33;;;188.07;;
54647;SDS011;40543;53.584;9.858;2023-06-22T12:46:35;258.65;;;168.20;;
54647;SDS011;40543;53.584;9.858;2023-06-22T12:49:02;278.20;;;177.65;;
54647;SDS011;40543;53.584;9.858;2023-06-22T12:51:29;289.08;;;183.18;;
54647;SDS011;40543;53.584;9.858;2023-06-22T12:53:55;286.85;;;182.07;;
54647;SDS011;40543;53.584;9.858;2023-06-22T12:56:20;303.42;;;188.43;;
54647;SDS011;40543;53.584;9.858;2023-06-22T12:58:45;261.15;;;170.52;;
54647;SDS011;40543;53.584;9.858;2023-06-22T13:01:11;271.70;;;173.63;;
54647;SDS011;40543;53.584;9.858;2023-06-22T13:03:36;286.23;;;181.80;;
54647;SDS011;40543;53.584;9.858;2023-06-22T13:06:01;309.92;;;192.18;;
54647;SDS011;40543;53.584;9.858;2023-06-22T13:08:28;293.40;;;184.35;;
54647;SDS011;40543;53.584;9.858;2023-06-22T13:10:54;299.52;;;187.40;;
54647;SDS011;40543;53.584;9.858;2023-06-22T13:13:21;294.30;;;184.75;;
54647;SDS011;40543;53.584;9.858;2023-06-22T13:15:49;273.08;;;175.80;;
54647;SDS011;40543;53.584;9.858;2023-06-22T13:18:15;256.38;;;167.95;;
54647;SDS011;40543;53.584;9.858;2023-06-22T13:20:40;252.90;;;166.85;;
54647;SDS011;40543;53.584;9.858;2023-06-22T13:23:06;257.05;;;168.10;;
54647;SDS011;40543;53.584;9.858;2023-06-22T13:25:31;266.92;;;172.65;;
54647;SDS011;40543;53.584;9.858;2023-06-22T13:27:56;288.88;;;181.35;;
54647;SDS011;40543;53.584;9.858;2023-06-22T13:30:22;272.23;;;174.57;;
54647;SDS011;40543;53.584;9.858;2023-06-22T13:32:47;270.73;;;173.80;;
54647;SDS011;40543;53.584;9.858;2023-06-22T13:35:12;255.32;;;167.55;;
54647;SDS011;40543;53.584;9.858;2023-06-22T13:37:38;264.15;;;171.55;;
54647;SDS011;40543;53.584;9.858;2023-06-22T13:40:04;276.88;;;176.05;;
54647;SDS011;40543;53.584;9.858;2023-06-22T13:42:32;258.00;;;168.65;;
54647;SDS011;40543;53.584;9.858;2023-06-22T13:44:57;262.67;;;171.07;;
54647;SDS011;40543;53.584;9.858;2023-06-22T13:47:22;265.85;;;172.60;;
54647;SDS011;40543;53.584;9.858;2023-06-22T13:49:48;267.73;;;173.52;;
54647;SDS011;40543;53.584;9.858;2023-06-22T13:52:13;277.02;;;175.88;;
54647;SDS011;40543;53.584;9.858;2023-06-22T13:54:39;276.23;;;177.15;;
54647;SDS011;40543;53.584;9.858;2023-06-22T13:57:04;278.70;;;177.55;;
54647;SDS011;40543;53.584;9.858;2023-06-22T13:59:30;264.02;;;169.48;;
54647;SDS011;40543;53.584;9.858;2023-06-22T14:01:55;227.30;;;153.82;;
54647;SDS011;40543;53.584;9.858;2023-06-22T14:04:22;216.18;;;148.88;;
54647;SDS011;40543;53.584;9.858;2023-06-22T14:06:48;212.63;;;147.55;;
54647;SDS011;40543;53.584;9.858;2023-06-22T14:09:14;218.43;;;150.50;;
54647;SDS011;40543;53.584;9.858;2023-06-22T14:11:39;226.25;;;153.38;;
54647;SDS011;40543;53.584;9.858;2023-06-22T14:14:04;228.35;;;154.77;;
54647;SDS011;40543;53.584;9.858;2023-06-22T14:16:30;230.55;;;155.55;;
54647;SDS011;40543;53.584;9.858;2023-06-22T14:18:55;226.25;;;152.07;;
54647;SDS011;40543;53.584;9.858;2023-06-22T14:21:20;208.20;;;145.10;;
54647;SDS011;40543;53.584;9.858;2023-06-22T14:23:46;202.77;;;143.35;;
54647;SDS011;40543;53.584;9.858;2023-06-22T14:26:14;190.88;;;137.90;;
54647;SDS011;40543;53.584;9.858;2023-06-22T14:28:42;194.40;;;139.05;;